Time;durP1;ratioP1;P1;durP2;ratioP2;P2;SDS_P1;SDS_P2;PMS_P1;PMS_P2;Temp;Humidity;BMP_temperature;BMP_pressure;BME280_temperature;BME280_humidity;BME280_pressure;Samples;Min_cycle;Max_cycle;Signal;HPM_P1;HPM_P2
2024/04/13 00:00:04;;;;;;;7.22;3.40;;;13.70;99.90;;;;;;5422606;26;20022;-79
2024/04/13 00:02:32;;;;;;;5.82;3.63;;;13.70;99.90;;;;;;5419757;26;20036;-79
2024/04/13 00:04:59;;;;;;;5.40;3.20;;;13.70;99.90;;;;;;5400005;26;20020;-79
2024/04/13 00:07:26;;;;;;;6.95;3.38;;;13.70;99.90;;;;;;5416850;26;20028;-79
2024/04/13 00:09:53;;;;;;;11.50;3.50;;;13.80;99.90;;;;;;5421376;26;20032;-78
2024/04/13 00:12:20;;;;;;;5.60;3.30;;;13.70;99.90;;;;;;5419870;26;20383;-77
2024/04/13 00:14:47;;;;;;;7.20;3.58;;;13.70;99.90;;;;;;5419968;26;20027;-78
2024/04/13 00:17:14;;;;;;;6.07;2.97;;;13.70;99.90;;;;;;5419135;26;20060;-78
2024/04/13 00:19:41;;;;;;;6.53;3.35;;;13.70;99.90;;;;;;5406520;26;20730;-78
2024/04/13 00:22:08;;;;;;;8.15;3.60;;;13.70;99.90;;;;;;5411388;26;20039;-78
2024/04/13 00:24:35;;;;;;;6.47;3.30;;;13.70;99.90;;;;;;5405883;26;20027;-78
2024/04/13 00:27:01;;;;;;;6.40;3.47;;;13.60;99.90;;;;;;5410538;26;20027;-78
2024/04/13 00:29:31;;;;;;;8.35;3.50;;;13.60;99.90;;;;;;5407521;26;20035;-78
2024/04/13 00:31:59;;;;;;;8.32;3.70;;;13.60;99.90;;;;;;5413518;26;20035;-79
2024/04/13 00:34:25;;;;;;;5.85;3.17;;;13.60;99.90;;;;;;5413488;26;20016;-78
2024/04/13 00:36:53;;;;;;;5.30;3.28;;;13.60;99.90;;;;;;5400060;26;20027;-78
2024/04/13 00:39:19;;;;;;;6.03;3.25;;;13.60;99.90;;;;;;5413855;26;20023;-79
2024/04/13 00:41:46;;;;;;;6.88;3.33;;;13.50;99.90;;;;;;5416992;26;20027;-78
2024/04/13 00:44:13;;;;;;;5.75;3.25;;;13.50;99.90;;;;;;5412622;26;20032;-78
2024/04/13 00:46:42;;;;;;;5.65;3.70;;;13.60;99.90;;;;;;5415297;26;20031;-79
2024/04/13 00:49:13;;;;;;;6.50;3.42;;;13.50;99.90;;;;;;5416973;26;20044;-78
2024/04/13 00:51:44;;;;;;;6.65;3.30;;;13.50;99.90;;;;;;5414834;26;20024;-78
2024/04/13 00:54:14;;;;;;;6.97;3.13;;;13.50;99.90;;;;;;5409306;26;20027;-78
2024/04/13 00:56:44;;;;;;;6.47;3.35;;;13.50;99.90;;;;;;5416824;26;20488;-79
2024/04/13 00:59:11;;;;;;;6.45;3.20;;;13.50;99.90;;;;;;5407843;26;20036;-77
2024/04/13 01:01:38;;;;;;;6.03;3.00;;;13.50;99.90;;;;;;5410885;26;20016;-77
2024/04/13 01:04:08;;;;;;;6.13;3.58;;;13.50;99.90;;;;;;5415225;26;20039;-79
2024/04/13 01:06:37;;;;;;;6.35;3.50;;;13.40;99.90;;;;;;5414964;26;20029;-79
2024/04/13 01:09:04;;;;;;;5.72;3.45;;;13.40;99.90;;;;;;5421828;26;20016;-79
2024/04/13 01:11:31;;;;;;;4.60;2.95;;;13.40;99.90;;;;;;5409593;26;20016;-79
2024/04/13 01:13:58;;;;;;;9.02;3.47;;;13.40;99.90;;;;;;5421345;26;20023;-78
2024/04/13 01:16:29;;;;;;;5.30;3.42;;;13.30;99.90;;;;;;5419654;26;20031;-77
2024/04/13 01:18:56;;;;;;;5.97;3.45;;;13.30;99.90;;;;;;5419310;26;20040;-78
2024/04/13 01:21:23;;;;;;;8.02;3.42;;;13.30;99.90;;;;;;5421201;26;20023;-78
2024/04/13 01:23:55;;;;;;;5.50;3.15;;;13.30;99.90;;;;;;5416807;26;20025;-79
2024/04/13 01:26:23;;;;;;;7.93;3.45;;;13.30;99.90;;;;;;5418474;26;20028;-79
2024/04/13 01:28:50;;;;;;;6.30;3.55;;;13.30;99.90;;;;;;5416293;26;20016;-78
2024/04/13 01:31:18;;;;;;;5.88;3.38;;;13.30;99.90;;;;;;5418537;26;20031;-78
2024/04/13 01:33:45;;;;;;;7.25;3.20;;;13.30;99.90;;;;;;5412191;26;20374;-77
2024/04/13 01:36:12;;;;;;;6.18;3.40;;;13.30;99.90;;;;;;5417609;26;20047;-75
2024/04/13 01:38:38;;;;;;;8.20;3.95;;;13.30;99.90;;;;;;5415160;26;20496;-74
2024/04/13 01:41:05;;;;;;;6.00;3.53;;;13.20;99.90;;;;;;5411567;26;20031;-75
2024/04/13 01:43:32;;;;;;;5.35;3.45;;;13.20;99.90;;;;;;5411507;26;20039;-75
2024/04/13 01:46:00;;;;;;;6.20;3.47;;;13.10;99.90;;;;;;5410687;26;20040;-76
2024/04/13 01:48:27;;;;;;;8.25;3.80;;;13.10;99.90;;;;;;5415045;26;20039;-76
2024/04/13 01:50:54;;;;;;;9.57;3.60;;;13.10;99.90;;;;;;5413207;26;20032;-76
2024/04/13 01:53:21;;;;;;;5.93;3.40;;;13.10;99.90;;;;;;5414620;26;20036;-76
2024/04/13 01:55:48;;;;;;;5.85;3.35;;;13.10;99.90;;;;;;5407457;26;20028;-76
2024/04/13 01:58:15;;;;;;;6.15;3.22;;;13.00;99.90;;;;;;5405525;26;20394;-76
2024/04/13 02:00:41;;;;;;;9.15;3.83;;;13.30;99.90;;;;;;5395848;26;20031;-75
2024/04/13 02:03:08;;;;;;;8.63;3.85;;;13.00;99.90;;;;;;5414491;26;20488;-76
2024/04/13 02:05:35;;;;;;;5.07;3.38;;;12.90;99.90;;;;;;5413380;26;20039;-76
2024/04/13 02:08:03;;;;;;;9.10;3.60;;;13.00;99.90;;;;;;5407115;26;20110;-76
2024/04/13 02:10:31;;;;;;;7.60;3.70;;;13.00;99.90;;;;;;5409780;26;20109;-75
2024/04/13 02:12:58;;;;;;;5.25;3.47;;;13.00;99.90;;;;;;5414914;26;20047;-76
2024/04/13 02:15:24;;;;;;;5.75;3.30;;;12.90;99.90;;;;;;5414276;26;20054;-76
2024/04/13 02:17:51;;;;;;;6.50;3.40;;;12.90;99.90;;;;;;5407409;26;20040;-76
2024/04/13 02:20:18;;;;;;;6.75;3.30;;;12.80;99.90;;;;;;5412019;26;20040;-76
2024/04/13 02:22:45;;;;;;;5.72;3.22;;;12.80;99.90;;;;;;5407269;26;20110;-76
2024/04/13 02:25:14;;;;;;;6.05;3.33;;;12.80;99.90;;;;;;5409402;26;20047;-76
2024/04/13 02:27:41;;;;;;;5.18;3.10;;;12.70;99.90;;;;;;5400334;26;20500;-76
2024/04/13 02:30:09;;;;;;;6.75;3.55;;;12.80;99.90;;;;;;5409554;26;20031;-76
2024/04/13 02:32:37;;;;;;;4.72;3.15;;;12.70;99.90;;;;;;5412332;26;20027;-75
2024/04/13 02:35:04;;;;;;;6.68;3.22;;;12.70;99.90;;;;;;5408205;26;20027;-75
2024/04/13 02:37:32;;;;;;;7.68;3.17;;;12.60;99.90;;;;;;5411862;26;20023;-76
2024/04/13 02:39:58;;;;;;;5.47;3.55;;;12.70;99.90;;;;;;5413811;26;20032;-75
2024/04/13 02:42:25;;;;;;;5.80;3.50;;;12.60;99.90;;;;;;5409044;26;20039;-76
2024/04/13 02:44:52;;;;;;;7.05;3.63;;;12.60;99.90;;;;;;5429377;21;20044;-76
2024/04/13 02:47:19;;;;;;;7.57;3.30;;;12.60;99.90;;;;;;5402355;26;20491;-76
2024/04/13 02:49:46;;;;;;;6.97;3.35;;;12.50;99.90;;;;;;5404374;26;20039;-76
2024/04/13 02:52:12;;;;;;;6.32;3.20;;;12.50;99.90;;;;;;5403926;26;20036;-77
2024/04/13 02:54:39;;;;;;;5.82;3.30;;;12.50;99.90;;;;;;5404520;26;20381;-77
2024/04/13 02:57:06;;;;;;;6.30;3.55;;;12.50;99.90;;;;;;5404661;26;20036;-77
2024/04/13 02:59:33;;;;;;;5.82;3.20;;;12.50;99.90;;;;;;5441527;26;20391;-77
2024/04/13 03:02:00;;;;;;;5.57;3.20;;;12.50;99.90;;;;;;5439270;26;20024;-77
2024/04/13 03:04:27;;;;;;;7.63;3.35;;;12.50;99.90;;;;;;5404039;26;20028;-77
2024/04/13 03:06:54;;;;;;;8.48;3.58;;;12.40;99.90;;;;;;5404174;26;20040;-77
2024/04/13 03:09:21;;;;;;;6.43;3.50;;;12.40;99.90;;;;;;5404268;26;20028;-77
2024/04/13 03:11:48;;;;;;;7.00;3.15;;;12.40;99.90;;;;;;5404026;26;20379;-77
2024/04/13 03:14:15;;;;;;;7.63;3.67;;;12.30;99.90;;;;;;5402365;26;20035;-77
2024/04/13 03:16:42;;;;;;;6.40;2.92;;;12.30;99.90;;;;;;5442888;26;20034;-77
2024/04/13 03:19:08;;;;;;;4.60;3.10;;;12.30;99.90;;;;;;5406113;26;20372;-77
2024/04/13 03:21:36;;;;;;;7.47;3.10;;;12.30;99.90;;;;;;5405329;26;20056;-77
2024/04/13 03:24:04;;;;;;;7.75;3.13;;;12.30;99.90;;;;;;5391066;26;20036;-76
2024/04/13 03:26:30;;;;;;;4.72;3.08;;;12.30;99.90;;;;;;5404343;26;20364;-76
2024/04/13 03:28:57;;;;;;;9.82;3.25;;;12.20;99.90;;;;;;5403844;26;20030;-76
2024/04/13 03:31:25;;;;;;;5.45;2.90;;;12.20;99.90;;;;;;5395620;26;20468;-76
2024/04/13 03:33:52;;;;;;;7.20;3.15;;;12.10;99.90;;;;;;5408994;26;20034;-76
2024/04/13 03:36:19;;;;;;;9.63;3.40;;;12.20;99.90;;;;;;5403902;26;20027;-76
2024/04/13 03:38:48;;;;;;;6.22;2.85;;;12.20;99.90;;;;;;5404029;26;20044;-76
2024/04/13 03:41:14;;;;;;;6.32;2.90;;;12.10;99.90;;;;;;5446473;26;20492;-76
2024/04/13 03:43:41;;;;;;;7.38;3.13;;;12.10;99.90;;;;;;5389973;26;20041;-76
2024/04/13 03:46:09;;;;;;;5.28;2.83;;;12.10;99.90;;;;;;5396170;26;20036;-76
2024/04/13 03:48:40;;;;;;;4.65;2.88;;;12.10;99.90;;;;;;5408012;26;20058;-76
2024/04/13 03:51:11;;;;;;;8.17;3.37;;;12.00;99.90;;;;;;5438493;26;20041;-77
2024/04/13 03:53:38;;;;;;;7.45;2.80;;;12.00;99.90;;;;;;5396944;26;20262;-77
2024/04/13 03:56:05;;;;;;;5.90;2.75;;;12.00;99.90;;;;;;5422818;26;20028;-77
2024/04/13 03:58:32;;;;;;;7.47;2.75;;;12.00;99.90;;;;;;5402618;26;20044;-77
2024/04/13 04:00:59;;;;;;;5.95;2.80;;;12.00;99.90;;;;;;5403098;26;20032;-77
2024/04/13 04:03:26;;;;;;;5.75;3.05;;;11.90;99.90;;;;;;5427237;26;20035;-77
2024/04/13 04:05:54;;;;;;;8.40;2.90;;;11.90;99.90;;;;;;5424891;26;20039;-77
2024/04/13 04:08:21;;;;;;;9.00;3.35;;;11.90;99.90;;;;;;5395819;26;20036;-77
2024/04/13 04:10:47;;;;;;;13.68;3.28;;;11.90;99.90;;;;;;5403040;26;20031;-77
2024/04/13 04:13:14;;;;;;;6.88;2.90;;;11.80;99.90;;;;;;5402962;26;20045;-77
2024/04/13 04:15:41;;;;;;;6.43;2.95;;;11.80;99.90;;;;;;5403045;26;20028;-77
2024/04/13 04:18:08;;;;;;;9.02;2.92;;;11.70;99.90;;;;;;5409778;26;20040;-77
2024/04/13 04:20:35;;;;;;;6.32;2.90;;;11.90;99.90;;;;;;5434850;26;20036;-77
2024/04/13 04:23:03;;;;;;;4.30;2.70;;;11.90;99.90;;;;;;5436841;26;20036;-76
2024/04/13 04:25:31;;;;;;;8.20;2.72;;;11.80;99.90;;;;;;5406193;26;20033;-76
2024/04/13 04:27:58;;;;;;;6.72;3.20;;;11.80;99.90;;;;;;5406863;26;20027;-76
2024/04/13 04:30:25;;;;;;;6.25;2.88;;;11.80;99.90;;;;;;5406047;26;20032;-76
2024/04/13 04:32:52;;;;;;;8.52;3.05;;;11.80;99.90;;;;;;5405790;26;20028;-76
2024/04/13 04:35:20;;;;;;;9.00;3.10;;;11.80;99.90;;;;;;5405801;26;20036;-76
2024/04/13 04:37:47;;;;;;;9.50;3.28;;;11.70;99.90;;;;;;5471525;26;20026;-76
2024/04/13 04:40:14;;;;;;;7.63;2.85;;;11.60;99.90;;;;;;5420698;26;20028;-76
2024/04/13 04:42:41;;;;;;;6.95;2.90;;;11.70;99.90;;;;;;5406591;26;20028;-76
2024/04/13 04:45:07;;;;;;;7.78;3.10;;;11.60;99.90;;;;;;5430875;26;20055;-76
2024/04/13 04:47:34;;;;;;;7.28;2.95;;;11.60;99.90;;;;;;5434817;26;20028;-77
2024/04/13 04:50:03;;;;;;;8.55;2.90;;;11.60;99.90;;;;;;5406248;26;20028;-77
2024/04/13 04:52:30;;;;;;;6.00;3.25;;;11.70;99.90;;;;;;5401375;26;20048;-77
2024/04/13 04:54:59;;;;;;;5.43;2.67;;;11.70;99.90;;;;;;5415700;26;20044;-77
2024/04/13 04:57:26;;;;;;;8.30;3.10;;;11.60;99.90;;;;;;5402711;26;20023;-77
2024/04/13 04:59:53;;;;;;;12.75;3.72;;;11.60;99.90;;;;;;5405625;26;20489;-77
2024/04/13 05:02:20;;;;;;;9.30;3.03;;;11.60;99.90;;;;;;5442114;26;20043;-77
2024/04/13 05:04:46;;;;;;;7.28;3.03;;;11.60;99.90;;;;;;5425055;26;20491;-77
2024/04/13 05:07:13;;;;;;;8.32;3.30;;;11.60;99.90;;;;;;5438109;26;20030;-77
2024/04/13 05:09:40;;;;;;;6.57;2.72;;;11.60;99.90;;;;;;5445793;26;20023;-77
2024/04/13 05:12:07;;;;;;;9.30;3.17;;;11.70;99.90;;;;;;5405890;26;20480;-77
2024/04/13 05:14:34;;;;;;;7.85;3.05;;;11.60;99.90;;;;;;5405900;26;20027;-77
2024/04/13 05:17:01;;;;;;;6.15;2.80;;;11.80;99.90;;;;;;5404709;26;20040;-77
2024/04/13 05:19:29;;;;;;;6.93;3.03;;;11.60;99.90;;;;;;5405624;26;20397;-76
2024/04/13 05:21:56;;;;;;;6.13;2.97;;;11.60;99.90;;;;;;5446452;26;20035;-76
2024/04/13 05:24:23;;;;;;;7.13;3.00;;;11.60;99.90;;;;;;5437139;26;20043;-76
2024/04/13 05:26:55;;;;;;;7.50;2.88;;;11.70;99.90;;;;;;5420104;26;20039;-76
2024/04/13 05:29:22;;;;;;;7.43;2.60;;;11.70;99.90;;;;;;5404410;26;20377;-76
2024/04/13 05:31:49;;;;;;;9.95;3.20;;;11.70;99.90;;;;;;5405237;26;20040;-76
2024/04/13 05:34:16;;;;;;;9.07;3.25;;;11.80;99.90;;;;;;5405310;26;20032;-76
2024/04/13 05:36:45;;;;;;;8.73;2.92;;;11.70;99.90;;;;;;5408442;26;20030;-76
2024/04/13 05:39:14;;;;;;;9.20;2.95;;;11.70;99.90;;;;;;5437003;26;20867;-76
2024/04/13 05:41:41;;;;;;;10.60;3.10;;;11.80;99.90;;;;;;5460897;26;20030;-76
2024/04/13 05:44:08;;;;;;;6.20;2.85;;;11.80;99.90;;;;;;5445724;26;20036;-76
2024/04/13 05:46:35;;;;;;;7.38;2.97;;;11.80;99.90;;;;;;5405645;26;20410;-76
2024/04/13 05:49:02;;;;;;;7.63;3.08;;;11.90;99.90;;;;;;5405234;26;20024;-76
2024/04/13 05:51:28;;;;;;;7.60;3.00;;;11.90;99.90;;;;;;5404057;26;20383;-76
2024/04/13 05:53:55;;;;;;;6.93;3.20;;;11.90;99.90;;;;;;5407669;26;20035;-76
2024/04/13 05:56:22;;;;;;;9.25;3.13;;;12.00;99.90;;;;;;5406024;26;20480;-76
2024/04/13 05:58:49;;;;;;;5.97;2.67;;;11.90;99.90;;;;;;5401043;26;20028;-76
2024/04/13 06:01:16;;;;;;;9.82;3.00;;;11.90;99.90;;;;;;5408163;26;20043;-77
2024/04/13 06:03:42;;;;;;;6.90;2.78;;;11.90;99.90;;;;;;5433299;26;20042;-77
2024/04/13 06:06:09;;;;;;;7.00;3.05;;;12.00;99.90;;;;;;5403710;26;20032;-77
2024/04/13 06:08:36;;;;;;;8.85;3.17;;;12.00;99.90;;;;;;5427246;26;21604;-77
2024/04/13 06:11:03;;;;;;;5.88;3.00;;;12.00;99.90;;;;;;5396643;26;20028;-77
2024/04/13 06:13:30;;;;;;;6.28;3.00;;;12.00;99.90;;;;;;5401152;26;20035;-76
2024/04/13 06:16:01;;;;;;;9.07;3.40;;;12.10;99.90;;;;;;5390417;26;20487;-76
2024/04/13 06:18:27;;;;;;;8.70;3.47;;;12.10;99.90;;;;;;5394093;26;20032;-76
2024/04/13 06:20:54;;;;;;;7.82;3.17;;;12.10;99.90;;;;;;5397782;26;20527;-76
2024/04/13 06:23:22;;;;;;;6.28;3.30;;;12.10;99.90;;;;;;5425128;26;20024;-76
2024/04/13 06:25:49;;;;;;;6.28;3.20;;;12.20;99.90;;;;;;5402181;26;20031;-76
2024/04/13 06:28:15;;;;;;;7.82;3.30;;;12.20;99.90;;;;;;5404911;26;20032;-76
2024/04/13 06:30:42;;;;;;;6.88;3.00;;;12.20;99.90;;;;;;5404501;26;20031;-76
2024/04/13 06:33:12;;;;;;;9.07;3.40;;;12.30;99.90;;;;;;5414632;26;20027;-76
2024/04/13 06:35:39;;;;;;;9.43;3.85;;;12.30;99.90;;;;;;5415385;26;20465;-76
2024/04/13 06:38:06;;;;;;;9.18;3.50;;;12.30;99.90;;;;;;5404119;26;20380;-76
2024/04/13 06:40:35;;;;;;;8.93;3.70;;;12.30;99.90;;;;;;5405025;26;20024;-76
2024/04/13 06:43:02;;;;;;;8.02;3.55;;;12.40;99.90;;;;;;5404637;26;20476;-76
2024/04/13 06:45:29;;;;;;;7.13;3.42;;;12.40;99.90;;;;;;5404524;26;20044;-76
2024/04/13 06:47:56;;;;;;;7.25;3.67;;;12.50;99.90;;;;;;5404928;26;20028;-76
2024/04/13 06:50:22;;;;;;;7.40;3.38;;;12.60;99.90;;;;;;5400358;26;20040;-76
2024/04/13 06:52:49;;;;;;;7.38;3.30;;;12.60;99.90;;;;;;5421287;26;20038;-76
2024/04/13 06:55:16;;;;;;;7.65;3.63;;;12.60;99.90;;;;;;5438535;26;20023;-76
2024/04/13 06:57:43;;;;;;;6.82;3.42;;;12.60;99.90;;;;;;5400776;26;20032;-76
2024/04/13 07:00:11;;;;;;;6.47;3.53;;;12.70;99.90;;;;;;5402899;26;20024;-76
2024/04/13 07:02:37;;;;;;;6.47;3.75;;;12.80;99.90;;;;;;5400958;26;20027;-77
2024/04/13 07:05:06;;;;;;;6.97;3.40;;;12.80;99.90;;;;;;5410450;26;20027;-77
2024/04/13 07:07:34;;;;;;;10.57;3.42;;;12.80;99.90;;;;;;5404280;26;19999;-77
2024/04/13 07:10:01;;;;;;;8.07;3.50;;;12.80;99.90;;;;;;5397767;26;20382;-77
2024/04/13 07:12:29;;;;;;;9.43;3.85;;;12.90;99.90;;;;;;5404168;26;20476;-77
2024/04/13 07:14:55;;;;;;;6.50;3.40;;;12.90;99.90;;;;;;5405631;26;20031;-77
2024/04/13 07:17:22;;;;;;;8.98;4.20;;;13.00;99.90;;;;;;5406493;26;20028;-77
2024/04/13 07:19:49;;;;;;;8.18;3.60;;;13.00;99.90;;;;;;5408000;26;20373;-76
2024/04/13 07:22:17;;;;;;;9.82;3.50;;;13.10;99.90;;;;;;5399636;26;20032;-76
2024/04/13 07:24:43;;;;;;;8.15;3.47;;;13.20;99.90;;;;;;5403818;26;20480;-77
2024/04/13 07:27:10;;;;;;;8.07;3.90;;;13.30;99.90;;;;;;5408829;26;20387;-77
2024/04/13 07:29:37;;;;;;;7.45;3.60;;;13.40;99.90;;;;;;5412380;26;20042;-77
2024/04/13 07:32:04;;;;;;;6.80;3.45;;;13.40;99.90;;;;;;5411200;26;20039;-78
2024/04/13 07:34:31;;;;;;;9.88;4.03;;;13.50;99.90;;;;;;5418940;26;20040;-77
2024/04/13 07:36:58;;;;;;;9.82;4.10;;;13.50;99.90;;;;;;5391992;26;20036;-77
2024/04/13 07:39:26;;;;;;;7.68;3.92;;;13.60;99.90;;;;;;5416496;26;20040;-77
2024/04/13 07:41:53;;;;;;;9.10;3.53;;;13.60;99.90;;;;;;5408621;26;20455;-76
2024/04/13 07:44:20;;;;;;;7.57;3.50;;;13.70;99.90;;;;;;5400420;26;20027;-77
2024/04/13 07:46:47;;;;;;;9.50;3.63;;;13.80;99.90;;;;;;5404023;26;20030;-77
2024/04/13 07:49:13;;;;;;;7.95;3.30;;;13.80;99.90;;;;;;5402941;26;20036;-77
2024/04/13 07:51:40;;;;;;;9.20;3.72;;;13.90;99.90;;;;;;5393171;26;20028;-77
2024/04/13 07:54:07;;;;;;;8.63;3.40;;;14.00;99.90;;;;;;5401011;26;20035;-77
2024/04/13 07:56:34;;;;;;;8.10;3.40;;;14.10;99.90;;;;;;5429199;26;20043;-77
2024/04/13 07:59:03;;;;;;;8.00;3.13;;;14.20;99.90;;;;;;5448778;26;20036;-77
2024/04/13 08:01:29;;;;;;;10.48;3.65;;;14.20;99.90;;;;;;5395788;26;20027;-77
2024/04/13 08:03:56;;;;;;;7.93;3.45;;;14.30;99.90;;;;;;5418367;26;20033;-76
2024/04/13 08:06:25;;;;;;;12.10;3.58;;;14.40;99.90;;;;;;5407080;26;20028;-76
2024/04/13 08:08:52;;;;;;;7.57;3.45;;;14.40;99.90;;;;;;5404450;26;20040;-78
2024/04/13 08:11:19;;;;;;;9.00;3.13;;;14.50;99.90;;;;;;5427273;26;20036;-78
2024/04/13 08:13:46;;;;;;;10.20;3.70;;;14.60;99.90;;;;;;5427901;26;20022;-78
2024/04/13 08:16:13;;;;;;;10.63;3.40;;;14.60;99.90;;;;;;5397455;26;20492;-78
2024/04/13 08:18:39;;;;;;;9.27;3.40;;;14.60;99.90;;;;;;5380364;26;20045;-78
2024/04/13 08:21:06;;;;;;;7.53;2.92;;;14.70;99.90;;;;;;5392566;26;20016;-77
2024/04/13 08:23:33;;;;;;;10.90;3.90;;;14.80;99.90;;;;;;5394471;26;20032;-77
2024/04/13 08:26:03;;;;;;;8.07;3.30;;;14.80;99.90;;;;;;5428559;26;20479;-77
2024/04/13 08:28:30;;;;;;;7.20;3.10;;;14.90;99.90;;;;;;5425250;26;20028;-77
2024/04/13 08:31:02;;;;;;;8.68;3.55;;;15.00;99.90;;;;;;5405231;26;20028;-78
2024/04/13 08:33:29;;;;;;;5.93;3.22;;;15.10;99.90;;;;;;5395271;26;20020;-78
2024/04/13 08:36:03;;;;;;;5.20;3.10;;;15.20;99.90;;;;;;5421730;26;20491;-77
2024/04/13 08:38:33;;;;;;;10.18;3.30;;;15.20;99.90;;;;;;5419589;26;20036;-77
2024/04/13 08:41:12;;;;;;;8.68;3.55;;;15.30;99.90;;;;;;5446573;26;20030;-77
2024/04/13 08:43:39;;;;;;;8.13;3.35;;;15.40;99.90;;;;;;5412548;26;20371;-77
2024/04/13 08:46:07;;;;;;;9.88;3.55;;;15.40;99.90;;;;;;5404146;26;20031;-77
2024/04/13 08:48:37;;;;;;;8.57;3.38;;;15.50;99.90;;;;;;5402797;26;20025;-77
2024/04/13 08:51:07;;;;;;;7.18;3.20;;;15.50;99.90;;;;;;5424231;26;20035;-77
2024/04/13 08:53:35;;;;;;;9.43;3.40;;;15.60;99.90;;;;;;5412597;26;20118;-77
2024/04/13 08:56:03;;;;;;;9.23;3.85;;;15.70;99.90;;;;;;5458233;26;20124;-77
2024/04/13 08:58:34;;;;;;;6.72;3.45;;;15.80;99.90;;;;;;5407854;26;20026;-78
2024/04/13 09:01:01;;;;;;;10.07;3.65;;;15.90;99.90;;;;;;5404435;26;20039;-77
2024/04/13 09:03:29;;;;;;;7.95;3.65;;;16.10;99.90;;;;;;5440521;26;20036;-79
2024/04/13 09:05:57;;;;;;;8.82;3.63;;;16.10;99.90;;;;;;5421986;26;20052;-77
2024/04/13 09:08:25;;;;;;;6.60;3.50;;;16.20;99.90;;;;;;5437710;26;20047;-78
2024/04/13 09:10:54;;;;;;;7.88;2.92;;;16.40;99.90;;;;;;5423770;26;20015;-78
2024/04/13 09:13:21;;;;;;;7.22;3.50;;;16.50;99.90;;;;;;5408400;26;20035;-78
2024/04/13 09:15:48;;;;;;;6.63;3.40;;;16.60;99.90;;;;;;5407805;26;20017;-78
2024/04/13 09:18:15;;;;;;;7.55;3.53;;;16.60;99.90;;;;;;5407436;26;20039;-78
2024/04/13 09:20:43;;;;;;;7.47;3.53;;;16.60;99.90;;;;;;5405701;26;20357;-78
2024/04/13 09:23:10;;;;;;;6.35;2.92;;;16.80;99.90;;;;;;5420860;26;20039;-77
2024/04/13 09:25:37;;;;;;;5.95;3.10;;;16.90;99.90;;;;;;5420868;26;20120;-78
2024/04/13 09:28:04;;;;;;;7.20;3.45;;;17.00;99.90;;;;;;5422284;26;20377;-78
2024/04/13 09:30:31;;;;;;;5.90;3.00;;;17.10;99.90;;;;;;5430459;26;20024;-78
2024/04/13 09:33:06;;;;;;;8.32;3.30;;;17.20;99.90;;;;;;5406118;26;20032;-79
2024/04/13 09:35:33;;;;;;;5.68;2.88;;;17.30;99.90;;;;;;5405063;26;20390;-78
2024/04/13 09:38:01;;;;;;;6.95;3.00;;;17.30;99.90;;;;;;5431181;26;20038;-77
2024/04/13 09:40:30;;;;;;;7.88;2.83;;;17.40;99.90;;;;;;5419973;26;20027;-78
2024/04/13 09:43:01;;;;;;;7.20;2.90;;;17.50;99.90;;;;;;5411999;26;20028;-78
2024/04/13 09:45:28;;;;;;;8.38;3.33;;;17.70;99.90;;;;;;5428581;26;20048;-78
2024/04/13 09:47:58;;;;;;;6.28;2.97;;;17.80;99.90;;;;;;5414643;26;20031;-78
2024/04/13 09:50:27;;;;;;;6.13;3.17;;;17.90;99.90;;;;;;5452673;26;20045;-78
2024/04/13 09:52:57;;;;;;;8.70;2.50;;;18.00;99.90;;;;;;5410076;26;20391;-78
2024/04/13 09:55:24;;;;;;;8.48;2.80;;;18.10;99.90;;;;;;5441959;26;20048;-78
2024/04/13 09:57:51;;;;;;;6.88;2.60;;;18.20;99.90;;;;;;5411142;26;20043;-78
2024/04/13 10:00:19;;;;;;;4.63;2.40;;;18.20;99.90;;;;;;5408070;26;20036;-78
2024/04/13 10:02:46;;;;;;;6.43;2.50;;;18.20;99.90;;;;;;5447447;26;20034;-78
2024/04/13 10:05:13;;;;;;;8.48;2.78;;;18.30;99.90;;;;;;5426153;26;20035;-78
2024/04/13 10:07:40;;;;;;;6.13;2.70;;;18.30;99.90;;;;;;5423280;26;20016;-78
2024/04/13 10:10:13;;;;;;;9.00;2.95;;;18.40;99.90;;;;;;5411716;26;20032;-77
2024/04/13 10:12:42;;;;;;;8.13;2.40;;;18.40;99.90;;;;;;5405542;26;20025;-78
2024/04/13 10:15:10;;;;;;;7.20;2.42;;;18.50;99.90;;;;;;5406444;26;20027;-78
2024/04/13 10:17:39;;;;;;;6.18;2.45;;;18.50;99.90;;;;;;5405658;26;20027;-78
2024/04/13 10:20:06;;;;;;;8.07;2.25;;;18.40;99.90;;;;;;5406728;26;20007;-78
2024/04/13 10:22:33;;;;;;;7.10;2.92;;;18.40;99.90;;;;;;5407529;26;20004;-78
2024/04/13 10:25:07;;;;;;;5.97;2.58;;;18.30;99.90;;;;;;5406386;26;20083;-78
2024/04/13 10:27:34;;;;;;;5.00;2.58;;;18.40;99.90;;;;;;5407338;26;20007;-77
2024/04/13 10:30:01;;;;;;;5.35;2.78;;;18.50;99.90;;;;;;5430255;26;20078;-78
2024/04/13 10:32:27;;;;;;;6.40;2.60;;;18.60;99.90;;;;;;5454704;26;20007;-80
2024/04/13 10:34:58;;;;;;;5.75;2.85;;;18.70;99.90;;;;;;5404036;26;20345;-78
2024/04/13 10:37:32;;;;;;;4.43;2.60;;;18.80;99.90;;;;;;5415600;26;20042;-78
2024/04/13 10:40:00;;;;;;;6.68;2.92;;;19.00;99.90;;;;;;5443315;26;20005;-77
2024/04/13 10:42:40;;;;;;;7.90;3.00;;;19.00;99.90;;;;;;5414499;26;20000;-78
2024/04/13 10:45:09;;;;;;;7.57;2.80;;;19.00;99.90;;;;;;5418774;26;20472;-78
2024/04/13 10:47:37;;;;;;;6.25;3.17;;;19.10;99.90;;;;;;5441589;26;20000;-78
2024/04/13 10:50:04;;;;;;;5.90;2.80;;;19.00;99.90;;;;;;5433670;26;20010;-78
2024/04/13 10:52:29;;;;;;;4.50;2.50;;;18.90;99.90;;;;;;5439793;26;20000;-77
2024/04/13 10:54:56;;;;;;;4.82;2.30;;;18.80;99.90;;;;;;5455883;26;20071;-78
2024/04/13 10:57:23;;;;;;;6.75;2.90;;;18.70;99.90;;;;;;5430848;26;20000;-77
2024/04/13 10:59:49;;;;;;;5.78;2.78;;;18.70;99.90;;;;;;5437373;26;20000;-78
2024/04/13 11:02:14;;;;;;;4.97;2.78;;;18.60;99.90;;;;;;5429299;26;20068;-77
2024/04/13 11:04:44;;;;;;;5.35;2.78;;;18.70;99.90;;;;;;5443133;26;20009;-78
2024/04/13 11:07:12;;;;;;;8.23;3.30;;;18.70;99.90;;;;;;5415946;26;20011;-78
2024/04/13 11:09:41;;;;;;;7.78;3.10;;;18.70;99.90;;;;;;5423809;26;20013;-78
2024/04/13 11:12:08;;;;;;;5.50;3.00;;;18.70;99.90;;;;;;5410418;26;20318;-78
2024/04/13 11:14:33;;;;;;;7.55;3.78;;;18.70;99.90;;;;;;5468000;26;20006;-78
2024/04/13 11:16:59;;;;;;;6.25;3.28;;;18.70;99.90;;;;;;5443516;26;20360;-78
2024/04/13 11:19:25;;;;;;;5.57;3.15;;;18.70;99.90;;;;;;5451268;26;20010;-78
2024/04/13 11:21:52;;;;;;;9.85;3.63;;;18.60;99.90;;;;;;5457873;26;20340;-78
2024/04/13 11:24:18;;;;;;;5.65;3.55;;;18.60;99.90;;;;;;5432444;26;20520;-78
2024/04/13 11:26:45;;;;;;;10.10;3.60;;;18.60;99.90;;;;;;5445019;26;20030;-78
2024/04/13 11:29:11;;;;;;;7.13;3.22;;;18.70;99.90;;;;;;5414782;26;20007;-77
2024/04/13 11:31:37;;;;;;;8.63;3.75;;;18.90;99.90;;;;;;5465049;26;21938;-77
2024/04/13 11:34:04;;;;;;;6.72;3.33;;;18.70;99.90;;;;;;5435958;26;20007;-77
2024/04/13 11:36:30;;;;;;;8.85;3.40;;;18.70;99.90;;;;;;5470338;26;20021;-77
2024/04/13 11:38:57;;;;;;;7.40;3.95;;;18.70;99.90;;;;;;5430885;26;20000;-77
2024/04/13 11:41:23;;;;;;;5.20;3.35;;;18.70;99.90;;;;;;5447488;26;20017;-78
2024/04/13 11:43:59;;;;;;;6.35;3.45;;;18.70;99.90;;;;;;5446101;26;19998;-77
2024/04/13 11:46:25;;;;;;;6.35;3.83;;;18.70;99.90;;;;;;5459565;26;20056;-77
2024/04/13 11:48:51;;;;;;;7.82;3.80;;;18.70;99.90;;;;;;5429235;26;19999;-77
2024/04/13 11:51:19;;;;;;;6.07;3.67;;;18.80;99.90;;;;;;5442547;26;20000;-78
2024/04/13 11:53:45;;;;;;;8.57;4.15;;;18.70;99.90;;;;;;5434338;26;20010;-77
2024/04/13 11:56:12;;;;;;;6.63;3.55;;;18.80;99.90;;;;;;5450177;26;20344;-77
2024/04/13 11:58:48;;;;;;;8.27;4.50;;;18.90;99.90;;;;;;5446089;26;20000;-78
2024/04/13 12:01:17;;;;;;;10.10;4.90;;;18.90;99.90;;;;;;5427823;26;19998;-78
2024/04/13 12:03:42;;;;;;;7.90;4.40;;;18.90;99.90;;;;;;5447510;26;20537;-78
2024/04/13 12:06:08;;;;;;;8.93;4.75;;;18.90;99.90;;;;;;5428929;26;20005;-78
2024/04/13 12:08:34;;;;;;;9.35;4.50;;;19.00;99.90;;;;;;5439371;26;19999;-78
2024/04/13 12:11:00;;;;;;;8.00;4.47;;;19.00;99.90;;;;;;5456884;26;20491;-78
2024/04/13 12:13:26;;;;;;;7.20;4.40;;;19.00;99.90;;;;;;5413909;26;20018;-78
2024/04/13 12:15:52;;;;;;;9.20;4.95;;;18.90;99.90;;;;;;5421238;26;20004;-78
2024/04/13 12:18:18;;;;;;;8.57;5.30;;;19.20;99.90;;;;;;5404264;26;20344;-78
2024/04/13 12:20:44;;;;;;;11.05;5.40;;;19.20;99.90;;;;;;5401876;26;20020;-78
2024/04/13 12:23:11;;;;;;;9.52;5.07;;;19.30;99.90;;;;;;5400131;26;19999;-78
2024/04/13 12:25:38;;;;;;;7.88;5.10;;;19.50;99.90;;;;;;5404166;26;20014;-78
2024/04/13 12:28:07;;;;;;;8.38;4.90;;;19.60;99.90;;;;;;5403375;26;20008;-77
2024/04/13 12:30:32;;;;;;;13.23;5.53;;;19.70;99.90;;;;;;5403000;26;20143;-78
2024/04/13 12:32:58;;;;;;;8.85;5.35;;;19.90;99.90;;;;;;5403629;26;20493;-78
2024/04/13 12:35:24;;;;;;;9.70;5.60;;;19.90;99.90;;;;;;5404599;26;20014;-77
2024/04/13 12:37:49;;;;;;;10.70;6.38;;;20.00;99.90;;;;;;5403060;26;20425;-78
2024/04/13 12:40:16;;;;;;;9.50;5.95;;;20.10;99.90;;;;;;5404319;26;20014;-78
2024/04/13 12:42:41;;;;;;;9.07;5.65;;;20.00;99.90;;;;;;5405664;26;20016;-77
2024/04/13 12:45:07;;;;;;;8.60;5.75;;;20.10;99.90;;;;;;5393373;26;20000;-79